createdAt,value
2023-01-01T00:06:34.973Z,10.33
2023-01-01T00:09:02.654Z,7.70
2023-01-01T00:11:30.161Z,7.03
2023-01-01T00:13:57.728Z,7.27
2023-01-01T00:16:25.279Z,6.87
2023-01-01T00:18:52.851Z,7.43
2023-01-01T00:21:20.395Z,7.37
2023-01-01T00:23:47.960Z,7.30
2023-01-01T00:26:18.554Z,7.00
2023-01-01T00:28:46.455Z,7.07
2023-01-01T00:31:23.175Z,7.50
2023-01-01T00:33:51.754Z,7.13
2023-01-01T00:36:19.372Z,7.00
2023-01-01T00:38:46.946Z,6.50
2023-01-01T00:41:14.986Z,7.10
2023-01-01T00:43:42.606Z,6.40
2023-01-01T00:46:10.705Z,5.50
2023-01-01T00:48:38.643Z,5.40
2023-01-01T00:51:06.348Z,5.37
2023-01-01T00:53:34.145Z,4.73
2023-01-01T00:56:01.624Z,4.10
2023-01-01T00:58:29.237Z,4.00
2023-01-01T01:00:56.752Z,3.07
2023-01-01T01:03:25.594Z,3.43
2023-01-01T01:05:53.088Z,2.97
2023-01-01T01:08:24.100Z,3.57
2023-01-01T01:10:54.615Z,2.37
2023-01-01T01:13:22.177Z,2.50
2023-01-01T01:15:56.115Z,2.23
2023-01-01T01:18:23.907Z,2.10
2023-01-01T01:20:52.201Z,1.87
2023-01-01T01:23:19.828Z,2.33
2023-01-01T01:25:47.508Z,2.50
2023-01-01T01:28:15.498Z,2.67
2023-01-01T01:30:43.050Z,2.27
2023-01-01T01:33:11.571Z,1.93
2023-01-01T01:35:39.028Z,1.90
2023-01-01T01:38:06.611Z,1.90
2023-01-01T01:40:34.473Z,1.77
2023-01-01T01:43:02.060Z,1.70
2023-01-01T01:45:33.240Z,2.00
2023-01-01T01:48:01.843Z,1.70
2023-01-01T01:50:31.006Z,1.70
2023-01-01T01:53:24.694Z,1.67
2023-01-01T01:55:54.351Z,1.77
2023-01-01T01:58:21.960Z,2.03
2023-01-01T02:00:49.926Z,2.00
2023-01-01T02:03:17.434Z,1.80
2023-01-01T02:05:45.443Z,2.03
2023-01-01T02:08:13.840Z,1.87
2023-01-01T02:10:41.424Z,1.87
2023-01-01T02:13:09.007Z,1.77
2023-01-01T02:15:43.051Z,2.30
2023-01-01T02:18:19.767Z,1.70
2023-01-01T02:20:49.952Z,1.77
2023-01-01T02:23:23.657Z,2.00
2023-01-01T02:25:59.537Z,1.83
2023-01-01T02:28:49.613Z,1.67
2023-01-01T02:31:23.168Z,1.73
2023-01-01T02:33:57.548Z,1.77
2023-01-01T02:36:25.943Z,1.80
2023-01-01T02:38:55.766Z,1.60
2023-01-01T02:41:34.552Z,1.63
2023-01-01T02:46:33.396Z,2.13
2023-01-01T02:49:09.951Z,1.80
2023-01-01T02:51:41.161Z,2.00
2023-01-01T02:54:34.808Z,2.40
2023-01-01T02:57:05.429Z,1.83
2023-01-01T02:59:38.512Z,2.00
2023-01-01T03:02:18.282Z,2.07
2023-01-01T03:05:04.362Z,1.50
2023-01-01T03:07:52.217Z,1.53
2023-01-01T03:10:29.130Z,1.80
2023-01-01T03:12:59.883Z,1.90
2023-01-01T03:15:44.391Z,1.80
2023-01-01T03:18:19.889Z,1.97
2023-01-01T03:20:49.381Z,2.27
2023-01-01T03:23:20.973Z,1.80
2023-01-01T03:25:53.766Z,2.03
2023-01-01T03:28:33.252Z,1.70
2023-01-01T03:31:01.043Z,1.77
2023-01-01T03:33:40.508Z,2.03
2023-01-01T03:36:10.624Z,1.60
2023-01-01T03:38:39.902Z,2.33
2023-01-01T03:41:11.275Z,2.00
2023-01-01T03:43:41.814Z,1.73
2023-01-01T03:46:09.595Z,2.03
2023-01-01T03:48:37.188Z,1.67
2023-01-01T03:51:16.187Z,1.63
2023-01-01T03:53:44.362Z,1.57
2023-01-01T03:56:18.533Z,1.93
2023-01-01T03:58:46.018Z,1.60
2023-01-01T04:01:18.933Z,1.83
2023-01-01T04:03:46.919Z,1.63
2023-01-01T04:06:14.425Z,1.60
2023-01-01T04:08:41.977Z,2.00
2023-01-01T04:11:14.976Z,2.10
2023-01-01T04:13:48.944Z,2.40
2023-01-01T04:16:16.494Z,1.80
2023-01-01T04:18:44.023Z,1.83
2023-01-01T04:21:12.664Z,1.40
2023-01-01T04:23:40.184Z,2.03
2023-01-01T04:26:12.404Z,1.87
2023-01-01T04:28:39.956Z,1.70
2023-01-01T04:31:07.470Z,1.60
2023-01-01T04:33:35.027Z,1.83
2023-01-01T04:36:07.854Z,1.50
2023-01-01T04:38:35.575Z,2.17
2023-01-01T04:41:03.618Z,1.90
2023-01-01T04:43:31.785Z,1.87
2023-01-01T04:46:03.243Z,1.90
2023-01-01T04:48:31.620Z,2.30
2023-01-01T04:51:00.180Z,2.10
2023-01-01T04:53:29.784Z,1.40
2023-01-01T04:55:57.644Z,1.73
2023-01-01T04:58:25.108Z,1.83
2023-01-01T05:00:52.722Z,2.00
2023-01-01T05:03:20.293Z,1.73
2023-01-01T05:05:51.325Z,2.30
2023-01-01T05:08:19.083Z,2.20
2023-01-01T05:10:46.585Z,1.83
2023-01-01T05:13:14.147Z,1.83
2023-01-01T05:15:41.600Z,1.90
2023-01-01T05:18:09.146Z,2.27
2023-01-01T05:20:36.602Z,2.27
2023-01-01T05:23:04.155Z,1.60
2023-01-01T05:25:31.659Z,1.57
2023-01-01T05:27:59.329Z,1.70
2023-01-01T05:30:26.827Z,1.77
2023-01-01T05:32:54.338Z,1.77
2023-01-01T05:35:26.324Z,1.40
2023-01-01T05:37:54.335Z,1.70
2023-01-01T05:40:21.795Z,1.70
2023-01-01T05:42:49.299Z,2.00
2023-01-01T05:45:16.834Z,1.70
2023-01-01T05:47:46.283Z,1.73
2023-01-01T05:50:13.809Z,1.50
2023-01-01T05:52:41.316Z,1.50
2023-01-01T05:55:08.982Z,1.97
2023-01-01T05:57:36.510Z,2.00
2023-01-01T06:00:04.285Z,1.90
2023-01-01T06:02:31.936Z,1.87
2023-01-01T06:04:59.423Z,1.93
2023-01-01T06:07:26.961Z,1.87
2023-01-01T06:09:54.512Z,1.87
2023-01-01T06:12:22.048Z,1.63
2023-01-01T06:14:49.561Z,2.00
2023-01-01T06:17:17.089Z,1.87
2023-01-01T06:19:44.568Z,1.90
2023-01-01T06:22:12.098Z,1.60
2023-01-01T06:24:39.631Z,1.60
2023-01-01T06:27:07.194Z,1.73
2023-01-01T06:29:34.773Z,2.20
2023-01-01T06:32:02.270Z,1.63
2023-01-01T06:34:29.767Z,1.67
2023-01-01T06:37:01.426Z,1.87
2023-01-01T06:39:33.945Z,1.93
2023-01-01T06:42:01.414Z,1.93
2023-01-01T06:44:28.964Z,1.83
2023-01-01T06:46:56.509Z,1.83
2023-01-01T06:49:24.014Z,1.70
2023-01-01T06:51:51.458Z,1.93
2023-01-01T06:54:19.021Z,1.57
2023-01-01T06:56:46.569Z,2.13
2023-01-01T06:59:14.145Z,2.60
2023-01-01T07:01:44.532Z,2.10
2023-01-01T07:04:13.709Z,1.77
2023-01-01T07:06:41.156Z,1.70
2023-01-01T07:09:09.155Z,2.57
2023-01-01T07:11:36.722Z,2.13
2023-01-01T07:14:04.548Z,1.90
2023-01-01T07:16:32.339Z,2.03
2023-01-01T07:18:59.814Z,1.93
2023-01-01T07:21:34.581Z,2.37
2023-01-01T07:24:03.213Z,2.47
2023-01-01T07:26:33.082Z,2.37
2023-01-01T07:29:08.469Z,2.63
2023-01-01T07:31:37.055Z,2.43
2023-01-01T07:34:04.949Z,3.23
2023-01-01T07:36:32.467Z,2.63
2023-01-01T07:39:00.030Z,3.17
2023-01-01T07:41:27.594Z,2.70
2023-01-01T07:43:55.075Z,2.20
2023-01-01T07:46:22.715Z,2.40
2023-01-01T07:48:50.228Z,2.57
2023-01-01T07:51:17.727Z,2.40
2023-01-01T07:53:50.435Z,2.33
2023-01-01T07:56:18.863Z,2.10
2023-01-01T07:58:46.391Z,2.10
2023-01-01T08:01:14.476Z,2.33
2023-01-01T08:03:42.169Z,1.97
2023-01-01T08:06:10.595Z,2.20
2023-01-01T08:08:38.479Z,1.70
2023-01-01T08:11:06.183Z,2.00
2023-01-01T08:13:33.667Z,2.23
2023-01-01T08:16:01.226Z,2.43
2023-01-01T08:18:28.700Z,2.33
2023-01-01T08:20:56.255Z,1.83
2023-01-01T08:23:23.851Z,2.27
2023-01-01T08:25:51.371Z,2.10
2023-01-01T08:28:18.870Z,2.30
2023-01-01T08:30:46.393Z,2.73
2023-01-01T08:33:13.872Z,2.10
2023-01-01T08:35:42.224Z,1.93
2023-01-01T08:38:12.796Z,2.20
2023-01-01T08:40:40.354Z,2.00
2023-01-01T08:43:08.106Z,2.37
2023-01-01T08:45:35.712Z,1.73
2023-01-01T08:48:03.201Z,2.20
2023-01-01T08:50:30.707Z,2.10
2023-01-01T08:52:58.942Z,2.43
2023-01-01T08:55:26.581Z,2.57
2023-01-01T08:57:54.077Z,2.30
2023-01-01T09:00:21.636Z,2.20
2023-01-01T09:02:49.213Z,2.00
2023-01-01T09:05:16.832Z,2.20
2023-01-01T09:07:44.335Z,2.40
2023-01-01T09:10:11.907Z,2.20
2023-01-01T09:12:39.431Z,2.50
2023-01-01T09:15:07.374Z,2.70
2023-01-01T09:17:34.872Z,2.30
2023-01-01T09:20:02.386Z,1.87
2023-01-01T09:22:29.874Z,2.27
2023-01-01T09:24:57.357Z,2.00
2023-01-01T09:27:24.834Z,2.27
2023-01-01T09:29:52.435Z,2.30
2023-01-01T09:32:19.903Z,2.73
2023-01-01T09:34:52.102Z,1.93
2023-01-01T09:37:20.181Z,1.87
2023-01-01T09:39:47.694Z,2.33
2023-01-01T09:42:38.240Z,2.23
2023-01-01T09:45:08.531Z,2.40
2023-01-01T09:47:42.073Z,2.57
2023-01-01T09:50:13.708Z,2.30
2023-01-01T09:52:46.506Z,2.07
2023-01-01T09:55:21.780Z,2.40
2023-01-01T09:57:49.329Z,2.67
2023-01-01T10:00:18.027Z,2.33
2023-01-01T10:02:49.829Z,2.30
2023-01-01T10:05:42.658Z,2.43
2023-01-01T10:08:29.048Z,2.30
2023-01-01T10:11:11.009Z,2.60
2023-01-01T10:13:42.845Z,2.20
2023-01-01T10:16:10.353Z,2.10
2023-01-01T10:18:39.293Z,1.83
2023-01-01T10:21:13.672Z,1.97
2023-01-01T10:23:44.003Z,1.87
2023-01-01T10:26:17.750Z,2.20
2023-01-01T10:28:54.399Z,2.20
2023-01-01T10:31:29.170Z,2.10
2023-01-01T10:33:56.778Z,2.10
2023-01-01T10:36:24.843Z,2.60
2023-01-01T10:38:52.448Z,2.27
2023-01-01T10:41:20.424Z,1.90
2023-01-01T10:43:48.986Z,2.30
2023-01-01T10:46:18.980Z,2.00
2023-01-01T10:49:03.996Z,2.33
2023-01-01T10:51:31.604Z,2.53
2023-01-01T10:53:59.353Z,2.33
2023-01-01T10:56:38.653Z,2.83
2023-01-01T10:59:26.142Z,2.40
2023-01-01T11:02:08.427Z,2.10
2023-01-01T11:04:36.093Z,2.63
2023-01-01T11:07:07.106Z,2.27
2023-01-01T11:09:36.726Z,2.80
2023-01-01T11:12:15.168Z,2.20
2023-01-01T11:14:57.681Z,2.50
2023-01-01T11:17:28.031Z,1.67
2023-01-01T11:20:01.470Z,2.00
2023-01-01T11:22:46.280Z,2.23
2023-01-01T11:25:19.899Z,2.47
2023-01-01T11:27:47.724Z,2.60
2023-01-01T11:30:26.217Z,2.20
2023-01-01T11:32:56.442Z,2.40
2023-01-01T11:35:25.757Z,2.27
2023-01-01T11:37:53.942Z,2.37
2023-01-01T11:40:42.947Z,2.30
2023-01-01T11:43:17.049Z,2.30
2023-01-01T11:45:44.703Z,2.20
2023-01-01T11:48:15.639Z,2.17
2023-01-01T11:50:53.991Z,2.03
2023-01-01T11:53:24.806Z,2.03
2023-01-01T11:55:55.400Z,2.30
2023-01-01T11:58:22.946Z,2.20
2023-01-01T12:00:53.402Z,2.07
2023-01-01T12:03:28.161Z,2.10
2023-01-01T12:06:06.659Z,2.10
2023-01-01T12:08:37.155Z,1.97
2023-01-01T12:11:18.211Z,2.40
2023-01-01T12:13:49.197Z,2.37
2023-01-01T12:16:39.489Z,2.40
2023-01-01T12:19:14.147Z,2.33
2023-01-01T12:21:49.042Z,2.57
2023-01-01T12:24:20.446Z,1.90
2023-01-01T12:26:53.859Z,2.40
2023-01-01T12:29:40.016Z,1.90
2023-01-01T12:32:31.045Z,2.33
2023-01-01T12:34:58.663Z,2.10
2023-01-01T12:37:32.164Z,1.97
2023-01-01T12:40:22.747Z,2.33
2023-01-01T12:43:05.245Z,2.20
2023-01-01T12:45:44.873Z,2.17
2023-01-01T12:48:15.233Z,1.93
2023-01-01T12:50:53.601Z,2.00
2023-01-01T12:53:28.923Z,2.13
2023-01-01T12:56:12.795Z,2.40
2023-01-01T12:58:44.353Z,2.47
2023-01-01T13:01:14.463Z,2.20
2023-01-01T13:03:49.950Z,2.03
2023-01-01T13:06:24.908Z,2.43
2023-01-01T13:09:00.456Z,2.47
2023-01-01T13:11:28.637Z,2.03
2023-01-01T13:13:56.208Z,3.23
2023-01-01T13:16:34.508Z,2.37
2023-01-01T13:19:02.953Z,1.60
2023-01-01T13:21:30.972Z,2.00
2023-01-01T13:24:05.447Z,2.33
2023-01-01T13:26:35.169Z,2.47
2023-01-01T13:29:02.732Z,2.17
2023-01-01T13:31:39.615Z,2.67
2023-01-01T13:34:26.035Z,2.33
2023-01-01T13:37:13.554Z,1.90
2023-01-01T13:39:59.469Z,2.40
2023-01-01T13:42:39.846Z,2.33
2023-01-01T13:48:24.234Z,2.17
2023-01-01T13:51:10.148Z,2.07
2023-01-01T13:53:37.639Z,2.53
2023-01-01T13:56:23.955Z,2.77
2023-01-01T13:58:51.498Z,2.17
2023-01-01T14:01:39.434Z,2.60
2023-01-01T14:04:13.270Z,2.03
2023-01-01T14:06:42.792Z,2.27
2023-01-01T14:09:13.557Z,2.37
2023-01-01T14:11:41.602Z,2.37
2023-01-01T14:14:19.121Z,2.37
2023-01-01T14:16:46.736Z,2.40
2023-01-01T14:19:16.401Z,2.43
2023-01-01T14:21:45.554Z,2.50
2023-01-01T14:24:16.042Z,2.20
2023-01-01T14:26:43.741Z,2.00
2023-01-01T14:29:15.904Z,2.30
2023-01-01T14:31:47.972Z,1.97
2023-01-01T14:34:15.589Z,2.07
2023-01-01T14:36:53.323Z,2.00
2023-01-01T14:39:28.884Z,2.40
2023-01-01T14:42:00.048Z,2.33
2023-01-01T14:44:34.818Z,2.10
2023-01-01T14:47:02.568Z,2.97
2023-01-01T14:49:38.443Z,2.20
2023-01-01T14:52:08.814Z,2.40
2023-01-01T14:54:37.758Z,2.47
2023-01-01T14:57:10.749Z,2.40
2023-01-01T14:59:45.970Z,2.50
2023-01-01T15:02:13.691Z,2.37
2023-01-01T15:04:41.984Z,1.93
2023-01-01T15:07:22.841Z,2.40
2023-01-01T15:09:51.115Z,2.00
2023-01-01T15:12:18.653Z,2.40
2023-01-01T15:14:46.261Z,2.20
2023-01-01T15:17:14.949Z,2.20
2023-01-01T15:19:43.629Z,2.60
2023-01-01T15:22:12.319Z,2.40
2023-01-01T15:24:40.095Z,1.90
2023-01-01T15:27:08.512Z,1.87
2023-01-01T15:29:38.013Z,3.07
2023-01-01T15:32:07.390Z,2.27
2023-01-01T15:34:36.422Z,2.20
2023-01-01T15:37:26.988Z,2.30
2023-01-01T15:39:58.875Z,2.27
2023-01-01T15:42:29.531Z,2.30
2023-01-01T15:44:57.142Z,2.63
2023-01-01T15:47:24.610Z,2.50
2023-01-01T15:50:07.267Z,2.20
2023-01-01T15:52:35.925Z,1.93
2023-01-01T15:55:03.523Z,1.87
2023-01-01T15:57:31.154Z,1.77
2023-01-01T15:59:58.727Z,1.60
2023-01-01T16:02:29.601Z,2.00
2023-01-01T16:04:57.345Z,2.27
2023-01-01T16:07:25.799Z,1.93
2023-01-01T16:09:58.127Z,1.73
2023-01-01T16:12:25.990Z,1.90
2023-01-01T16:14:53.496Z,2.00
2023-01-01T16:17:21.408Z,1.67
2023-01-01T16:19:48.987Z,2.33
2023-01-01T16:22:17.518Z,1.50
2023-01-01T16:24:45.420Z,1.50
2023-01-01T16:27:13.654Z,1.77
2023-01-01T16:29:43.448Z,1.80
2023-01-01T16:32:17.370Z,2.00
2023-01-01T16:34:45.167Z,1.67
2023-01-01T16:37:12.763Z,1.43
2023-01-01T16:39:40.335Z,1.73
2023-01-01T16:42:10.747Z,1.77
2023-01-01T16:44:41.413Z,1.50
2023-01-01T16:47:09.124Z,1.77
2023-01-01T16:49:36.710Z,1.23
2023-01-01T16:52:04.230Z,1.30
2023-01-01T16:54:31.843Z,1.77
2023-01-01T16:56:59.331Z,1.90
2023-01-01T16:59:27.027Z,1.60
2023-01-01T17:01:54.573Z,1.43
2023-01-01T17:04:24.194Z,1.60
2023-01-01T17:06:51.827Z,1.50
2023-01-01T17:09:19.307Z,2.60
2023-01-01T17:11:46.886Z,2.57
2023-01-01T17:14:16.892Z,1.80
2023-01-01T17:16:44.572Z,1.73
2023-01-01T17:19:17.150Z,1.93
2023-01-01T17:21:46.134Z,2.00
2023-01-01T17:24:14.513Z,2.23
2023-01-01T17:26:42.079Z,2.10
2023-01-01T17:29:09.649Z,1.90
2023-01-01T17:31:37.316Z,1.93
2023-01-01T17:34:10.779Z,2.10
2023-01-01T17:36:41.607Z,2.00
2023-01-01T17:39:10.894Z,2.50
2023-01-01T17:41:38.495Z,2.47
2023-01-01T17:44:06.247Z,2.40
2023-01-01T17:46:34.046Z,2.67
2023-01-01T17:49:02.036Z,3.30
2023-01-01T17:51:29.802Z,2.50
2023-01-01T17:53:57.788Z,2.87
2023-01-01T17:56:25.496Z,2.70
2023-01-01T17:58:53.614Z,3.07
2023-01-01T18:01:24.303Z,2.63
2023-01-01T18:03:53.129Z,3.57
2023-01-01T18:06:20.834Z,2.90
2023-01-01T18:08:48.772Z,3.03
2023-01-01T18:11:16.356Z,2.60
2023-01-01T18:13:43.930Z,3.10
2023-01-01T18:16:11.467Z,2.67
2023-01-01T18:18:40.229Z,2.73
2023-01-01T18:21:12.437Z,3.17
2023-01-01T18:23:40.229Z,3.00
2023-01-01T18:26:08.901Z,2.70
2023-01-01T18:28:36.450Z,3.10
2023-01-01T18:31:07.697Z,2.80
2023-01-01T18:33:35.607Z,3.20
2023-01-01T18:36:06.753Z,3.13
2023-01-01T18:38:34.544Z,3.90
2023-01-01T18:41:11.065Z,3.53
2023-01-01T18:43:38.587Z,3.20
2023-01-01T18:46:12.421Z,3.10
2023-01-01T18:48:40.080Z,3.20
2023-01-01T18:51:15.130Z,3.57
2023-01-01T18:53:42.661Z,3.70
2023-01-01T18:56:14.571Z,3.93
2023-01-01T18:58:42.593Z,3.40
2023-01-01T19:01:20.859Z,3.50
2023-01-01T19:04:01.322Z,3.50
2023-01-01T19:06:30.079Z,3.23
2023-01-01T19:09:15.903Z,3.57
2023-01-01T19:11:43.539Z,3.50
2023-01-01T19:14:18.232Z,3.93
2023-01-01T19:16:46.973Z,3.60
2023-01-01T19:19:17.504Z,3.70
2023-01-01T19:21:51.279Z,3.87
2023-01-01T19:24:19.057Z,4.13
2023-01-01T19:26:46.856Z,3.87
2023-01-01T19:29:22.041Z,4.10
2023-01-01T19:31:50.638Z,4.33
2023-01-01T19:34:20.589Z,4.50
2023-01-01T19:36:48.721Z,4.90
2023-01-01T19:39:16.608Z,4.30
2023-01-01T19:41:44.582Z,4.83
2023-01-01T19:44:12.105Z,4.33
2023-01-01T19:46:39.907Z,4.73
2023-01-01T19:49:07.459Z,4.90
2023-01-01T19:51:34.976Z,4.90
2023-01-01T19:54:05.447Z,4.60
2023-01-01T19:56:32.993Z,5.23
2023-01-01T19:59:00.563Z,4.97
2023-01-01T20:01:28.235Z,4.60
2023-01-01T20:03:57.366Z,4.93
2023-01-01T20:06:25.801Z,4.93
2023-01-01T20:08:54.048Z,5.20
2023-01-01T20:11:21.679Z,5.00
2023-01-01T20:13:49.239Z,4.43
2023-01-01T20:16:16.883Z,5.30
2023-01-01T20:18:44.444Z,5.33
2023-01-01T20:21:12.221Z,5.40
2023-01-01T20:23:40.023Z,5.27
2023-01-01T20:26:07.603Z,5.73
2023-01-01T20:28:35.145Z,5.90
2023-01-01T20:31:02.779Z,6.10
2023-01-01T20:33:30.333Z,5.40
2023-01-01T20:35:57.861Z,6.27
2023-01-01T20:38:25.407Z,5.70
2023-01-01T20:40:53.001Z,6.57
2023-01-01T20:43:20.483Z,5.90
2023-01-01T20:45:48.065Z,6.30
2023-01-01T20:48:19.692Z,6.60
2023-01-01T20:50:47.544Z,5.83
2023-01-01T20:53:15.085Z,5.77
2023-01-01T20:55:42.606Z,5.60
2023-01-01T20:58:10.181Z,6.07
2023-01-01T21:00:37.729Z,5.20
2023-01-01T21:03:05.228Z,5.40
2023-01-01T21:05:32.805Z,6.17
2023-01-01T21:08:00.357Z,5.97
2023-01-01T21:10:27.883Z,5.67
2023-01-01T21:12:58.270Z,5.53
2023-01-01T21:15:26.952Z,5.53
2023-01-01T21:17:54.421Z,6.20
2023-01-01T21:20:22.216Z,5.90
2023-01-01T21:22:49.751Z,5.20
2023-01-01T21:25:49.715Z,5.53
2023-01-01T21:28:14.029Z,5.30
2023-01-01T21:31:00.439Z,4.80
2023-01-01T21:33:31.934Z,5.77
2023-01-01T21:36:02.550Z,4.90
2023-01-01T21:38:32.106Z,5.77
2023-01-01T21:41:00.701Z,5.07
2023-01-01T21:43:54.342Z,5.80
2023-01-01T21:46:30.745Z,4.83
2023-01-01T21:49:01.013Z,5.33
2023-01-01T21:51:28.623Z,5.73
2023-01-01T21:54:02.313Z,5.53
2023-01-01T21:56:31.772Z,4.57
2023-01-01T21:59:01.890Z,5.77
2023-01-01T22:01:29.457Z,5.77
2023-01-01T22:04:01.965Z,4.80
2023-01-01T22:06:36.056Z,4.70
2023-01-01T22:09:14.715Z,5.53
2023-01-01T22:11:42.699Z,5.33
2023-01-01T22:14:14.562Z,4.87
2023-01-01T22:16:42.194Z,5.43
2023-01-01T22:19:14.337Z,5.53
2023-01-01T22:21:41.943Z,5.43
2023-01-01T22:24:35.992Z,5.93
2023-01-01T22:27:15.633Z,5.40
2023-01-01T22:29:44.066Z,5.03
2023-01-01T22:32:17.623Z,4.97
2023-01-01T22:34:45.625Z,5.33
2023-01-01T22:37:20.434Z,4.77
2023-01-01T22:39:48.147Z,5.23
2023-01-01T22:42:19.693Z,5.07
2023-01-01T22:44:54.942Z,4.50
2023-01-01T22:47:22.563Z,4.43
2023-01-01T22:49:51.592Z,5.60
2023-01-01T22:52:19.156Z,5.27
2023-01-01T22:54:46.643Z,4.70
2023-01-01T22:57:14.194Z,4.80
2023-01-01T22:59:41.713Z,4.50
2023-01-01T23:02:09.381Z,4.47
2023-01-01T23:04:37.036Z,4.80
2023-01-01T23:07:05.385Z,4.80
2023-01-01T23:09:35.223Z,4.27
2023-01-01T23:12:02.718Z,4.17
2023-01-01T23:14:30.885Z,4.40
2023-01-01T23:17:00.963Z,5.30
2023-01-01T23:19:28.494Z,5.37
2023-01-01T23:21:56.106Z,4.40
2023-01-01T23:24:24.190Z,4.90
2023-01-01T23:26:51.985Z,4.97
2023-01-01T23:29:20.070Z,4.50
2023-01-01T23:31:48.334Z,5.00
2023-01-01T23:34:16.048Z,5.30
2023-01-01T23:36:44.098Z,4.73
2023-01-01T23:39:11.589Z,4.10
2023-01-01T23:41:39.111Z,4.23
2023-01-01T23:44:06.582Z,4.50
2023-01-01T23:46:34.865Z,3.97
2023-01-01T23:49:03.138Z,4.73
2023-01-01T23:51:30.695Z,4.63
2023-01-01T23:53:58.202Z,4.70
2023-01-01T23:56:28.226Z,4.60
2023-01-01T23:58:55.769Z,4.40
